sensor_id;sensor_type;location;lat;lon;timestamp;pressure;altitude;pressure_sealevel;temperature
20867;BMP280;10593;48.398;10.698;2023-05-07T00:01:56;96118.03;;;22.51
20867;BMP280;10593;48.398;10.698;2023-05-07T00:04:22;96112.06;;;22.49
20867;BMP280;10593;48.398;10.698;2023-05-07T00:06:48;96113.94;;;22.47
20867;BMP280;10593;48.398;10.698;2023-05-07T00:09:13;96113.19;;;22.45
20867;BMP280;10593;48.398;10.698;2023-05-07T00:11:39;96105.44;;;22.43
20867;BMP280;10593;48.398;10.698;2023-05-07T00:14:06;96102.91;;;22.42
20867;BMP280;10593;48.398;10.698;2023-05-07T00:16:31;96099.56;;;22.40
20867;BMP280;10593;48.398;10.698;2023-05-07T00:18:57;96099.66;;;22.38
20867;BMP280;10593;48.398;10.698;2023-05-07T00:21:23;96103.31;;;22.36
20867;BMP280;10593;48.398;10.698;2023-05-07T00:23:52;96105.91;;;22.36
20867;BMP280;10593;48.398;10.698;2023-05-07T00:26:18;96099.94;;;22.34
20867;BMP280;10593;48.398;10.698;2023-05-07T00:28:44;96105.38;;;22.31
20867;BMP280;10593;48.398;10.698;2023-05-07T00:31:10;96103.69;;;22.30
20867;BMP280;10593;48.398;10.698;2023-05-07T00:33:35;96108.19;;;22.28
20867;BMP280;10593;48.398;10.698;2023-05-07T00:36:01;96107.47;;;22.26
20867;BMP280;10593;48.398;10.698;2023-05-07T00:38:27;96107.53;;;22.24
20867;BMP280;10593;48.398;10.698;2023-05-07T00:40:53;96112.91;;;22.23
20867;BMP280;10593;48.398;10.698;2023-05-07T00:43:18;96111.31;;;22.20
20867;BMP280;10593;48.398;10.698;2023-05-07T00:45:44;96106.19;;;22.19
20867;BMP280;10593;48.398;10.698;2023-05-07T00:48:10;96110.66;;;22.17
20867;BMP280;10593;48.398;10.698;2023-05-07T00:50:35;96109.09;;;22.14
20867;BMP280;10593;48.398;10.698;2023-05-07T00:53:01;96101.34;;;22.13
20867;BMP280;10593;48.398;10.698;2023-05-07T00:55:28;96108.53;;;22.09
20867;BMP280;10593;48.398;10.698;2023-05-07T00:57:54;96101.75;;;22.07
20867;BMP280;10593;48.398;10.698;2023-05-07T01:00:19;96105.31;;;22.06
20867;BMP280;10593;48.398;10.698;2023-05-07T01:02:45;96105.50;;;22.03
20867;BMP280;10593;48.398;10.698;2023-05-07T01:05:15;96103.81;;;22.02
20867;BMP280;10593;48.398;10.698;2023-05-07T01:07:42;96104.00;;;21.99
20867;BMP280;10593;48.398;10.698;2023-05-07T01:10:10;96101.59;;;21.96
20867;BMP280;10593;48.398;10.698;2023-05-07T01:12:39;96100.88;;;21.94
20867;BMP280;10593;48.398;10.698;2023-05-07T01:15:08;96100.94;;;21.92
20867;BMP280;10593;48.398;10.698;2023-05-07T01:17:36;96090.56;;;21.91
20867;BMP280;10593;48.398;10.698;2023-05-07T01:20:04;96092.44;;;21.89
20867;BMP280;10593;48.398;10.698;2023-05-07T01:22:33;96096.94;;;21.87
20867;BMP280;10593;48.398;10.698;2023-05-07T01:25:00;96101.44;;;21.85
20867;BMP280;10593;48.398;10.698;2023-05-07T01:27:27;96100.72;;;21.83
20867;BMP280;10593;48.398;10.698;2023-05-07T01:29:53;96096.41;;;21.82
20867;BMP280;10593;48.398;10.698;2023-05-07T01:32:40;96096.50;;;21.80
20867;BMP280;10593;48.398;10.698;2023-05-07T01:35:10;96099.25;;;21.79
20867;BMP280;10593;48.398;10.698;2023-05-07T01:37:37;96101.09;;;21.77
20867;BMP280;10593;48.398;10.698;2023-05-07T01:40:04;96099.41;;;21.76
20867;BMP280;10593;48.398;10.698;2023-05-07T01:42:31;96103.06;;;21.73
20867;BMP280;10593;48.398;10.698;2023-05-07T01:44:57;96104.97;;;21.71
20867;BMP280;10593;48.398;10.698;2023-05-07T01:47:24;96104.09;;;21.71
20867;BMP280;10593;48.398;10.698;2023-05-07T01:49:50;96105.13;;;21.68
20867;BMP280;10593;48.398;10.698;2023-05-07T01:52:16;96103.66;;;21.64
20867;BMP280;10593;48.398;10.698;2023-05-07T01:54:42;96108.03;;;21.64
20867;BMP280;10593;48.398;10.698;2023-05-07T01:57:08;96109.06;;;21.61
20867;BMP280;10593;48.398;10.698;2023-05-07T01:59:33;96104.84;;;21.59
20867;BMP280;10593;48.398;10.698;2023-05-07T02:01:59;96103.16;;;21.58
20867;BMP280;10593;48.398;10.698;2023-05-07T02:04:26;96091.97;;;21.56
20867;BMP280;10593;48.398;10.698;2023-05-07T02:06:52;96091.97;;;21.56
20867;BMP280;10593;48.398;10.698;2023-05-07T02:09:18;96096.47;;;21.54
20867;BMP280;10593;48.398;10.698;2023-05-07T02:11:44;96097.41;;;21.53
20867;BMP280;10593;48.398;10.698;2023-05-07T02:14:10;96091.44;;;21.51
20867;BMP280;10593;48.398;10.698;2023-05-07T02:16:36;96094.03;;;21.51
20867;BMP280;10593;48.398;10.698;2023-05-07T02:19:02;96096.81;;;21.48
20867;BMP280;10593;48.398;10.698;2023-05-07T02:21:27;96093.38;;;21.47
20867;BMP280;10593;48.398;10.698;2023-05-07T02:23:53;96097.97;;;21.44
20867;BMP280;10593;48.398;10.698;2023-05-07T02:26:19;96095.34;;;21.44
20867;BMP280;10593;48.398;10.698;2023-05-07T02:28:45;96095.53;;;21.41
20867;BMP280;10593;48.398;10.698;2023-05-07T02:31:10;96101.88;;;21.37
20867;BMP280;10593;48.398;10.698;2023-05-07T02:33:36;96093.22;;;21.36
20867;BMP280;10593;48.398;10.698;2023-05-07T02:36:09;96099.47;;;21.34
20867;BMP280;10593;48.398;10.698;2023-05-07T02:38:36;96094.44;;;21.31
20867;BMP280;10593;48.398;10.698;2023-05-07T02:41:02;96091.06;;;21.29
20867;BMP280;10593;48.398;10.698;2023-05-07T02:43:27;96096.50;;;21.26
20867;BMP280;10593;48.398;10.698;2023-05-07T02:46:08;96093.13;;;21.24
20867;BMP280;10593;48.398;10.698;2023-05-07T02:48:34;96086.31;;;21.22
20867;BMP280;10593;48.398;10.698;2023-05-07T02:51:00;96081.19;;;21.20
20867;BMP280;10593;48.398;10.698;2023-05-07T02:53:26;96095.19;;;21.19
20867;BMP280;10593;48.398;10.698;2023-05-07T02:55:57;96085.66;;;21.18
20867;BMP280;10593;48.398;10.698;2023-05-07T02:58:24;96081.44;;;21.16
20867;BMP280;10593;48.398;10.698;2023-05-07T03:00:50;96073.72;;;21.14
20867;BMP280;10593;48.398;10.698;2023-05-07T03:03:15;96079.03;;;21.13
20867;BMP280;10593;48.398;10.698;2023-05-07T03:05:41;96078.28;;;21.11
20867;BMP280;10593;48.398;10.698;2023-05-07T03:08:07;96072.31;;;21.09
20867;BMP280;10593;48.398;10.698;2023-05-07T03:10:33;96082.88;;;21.07
20867;BMP280;10593;48.398;10.698;2023-05-07T03:13:00;96077.75;;;21.06
20867;BMP280;10593;48.398;10.698;2023-05-07T03:15:26;96069.25;;;21.02
20867;BMP280;10593;48.398;10.698;2023-05-07T03:17:51;96071.94;;;21.01
20867;BMP280;10593;48.398;10.698;2023-05-07T03:20:17;96071.19;;;20.99
20867;BMP280;10593;48.398;10.698;2023-05-07T03:22:43;96074.75;;;20.98
20867;BMP280;10593;48.398;10.698;2023-05-07T03:25:10;96080.16;;;20.95
20867;BMP280;10593;48.398;10.698;2023-05-07T03:27:36;96086.31;;;20.94
20867;BMP280;10593;48.398;10.698;2023-05-07T03:30:03;96092.50;;;20.93
20867;BMP280;10593;48.398;10.698;2023-05-07T03:32:28;96100.41;;;20.91
20867;BMP280;10593;48.398;10.698;2023-05-07T03:34:54;96098.72;;;20.90
20867;BMP280;10593;48.398;10.698;2023-05-07T03:37:21;96097.06;;;20.89
20867;BMP280;10593;48.398;10.698;2023-05-07T03:39:47;96099.75;;;20.88
20867;BMP280;10593;48.398;10.698;2023-05-07T03:42:13;96103.28;;;20.87
20867;BMP280;10593;48.398;10.698;2023-05-07T03:44:38;96098.19;;;20.85
20867;BMP280;10593;48.398;10.698;2023-05-07T03:47:04;96101.72;;;20.84
20867;BMP280;10593;48.398;10.698;2023-05-07T03:49:30;96117.44;;;20.83
20867;BMP280;10593;48.398;10.698;2023-05-07T03:51:55;96114.84;;;20.83
20867;BMP280;10593;48.398;10.698;2023-05-07T03:54:22;96117.53;;;20.81
20867;BMP280;10593;48.398;10.698;2023-05-07T03:56:47;96120.25;;;20.80
20867;BMP280;10593;48.398;10.698;2023-05-07T03:59:13;96122.00;;;20.79
20867;BMP280;10593;48.398;10.698;2023-05-07T04:01:39;96130.78;;;20.78
20867;BMP280;10593;48.398;10.698;2023-05-07T04:04:05;96130.84;;;20.77
20867;BMP280;10593;48.398;10.698;2023-05-07T04:06:31;96127.50;;;20.75
20867;BMP280;10593;48.398;10.698;2023-05-07T04:08:57;96116.22;;;20.74
20867;BMP280;10593;48.398;10.698;2023-05-07T04:11:23;96119.84;;;20.72
20867;BMP280;10593;48.398;10.698;2023-05-07T04:13:49;96126.09;;;20.69
20867;BMP280;10593;48.398;10.698;2023-05-07T04:16:14;96120.13;;;20.67
20867;BMP280;10593;48.398;10.698;2023-05-07T04:18:41;96117.69;;;20.64
20867;BMP280;10593;48.398;10.698;2023-05-07T04:21:18;96130.75;;;20.64
20867;BMP280;10593;48.398;10.698;2023-05-07T04:23:48;96128.31;;;20.61
20867;BMP280;10593;48.398;10.698;2023-05-07T04:26:15;96126.66;;;20.60
20867;BMP280;10593;48.398;10.698;2023-05-07T04:28:41;96126.66;;;20.60
20867;BMP280;10593;48.398;10.698;2023-05-07T04:31:08;96124.97;;;20.59
20867;BMP280;10593;48.398;10.698;2023-05-07T04:33:34;96131.13;;;20.58
20867;BMP280;10593;48.398;10.698;2023-05-07T04:36:04;96121.63;;;20.57
20867;BMP280;10593;48.398;10.698;2023-05-07T04:38:30;96123.28;;;20.58
20867;BMP280;10593;48.398;10.698;2023-05-07T04:41:06;96123.28;;;20.58
20867;BMP280;10593;48.398;10.698;2023-05-07T04:43:32;96124.97;;;20.59
20867;BMP280;10593;48.398;10.698;2023-05-07T04:45:57;96127.47;;;20.61
20867;BMP280;10593;48.398;10.698;2023-05-07T04:48:24;96129.06;;;20.63
20867;BMP280;10593;48.398;10.698;2023-05-07T04:50:50;96125.44;;;20.66
20867;BMP280;10593;48.398;10.698;2023-05-07T04:53:17;96130.47;;;20.69
20867;BMP280;10593;48.398;10.698;2023-05-07T04:55:43;96136.38;;;20.72
20867;BMP280;10593;48.398;10.698;2023-05-07T04:58:10;96128.44;;;20.74
20867;BMP280;10593;48.398;10.698;2023-05-07T05:00:36;96130.78;;;20.78
20867;BMP280;10593;48.398;10.698;2023-05-07T05:03:02;96137.50;;;20.82
20867;BMP280;10593;48.398;10.698;2023-05-07T05:05:27;96133.06;;;20.84
20867;BMP280;10593;48.398;10.698;2023-05-07T05:07:53;96129.34;;;20.88
20867;BMP280;10593;48.398;10.698;2023-05-07T05:10:19;96121.31;;;20.91
20867;BMP280;10593;48.398;10.698;2023-05-07T05:12:44;96117.56;;;20.95
20867;BMP280;10593;48.398;10.698;2023-05-07T05:15:12;96123.38;;;21.00
20867;BMP280;10593;48.398;10.698;2023-05-07T05:17:38;96120.56;;;21.03
20867;BMP280;10593;48.398;10.698;2023-05-07T05:20:05;96123.75;;;21.08
20867;BMP280;10593;48.398;10.698;2023-05-07T05:22:32;96121.72;;;21.13
20867;BMP280;10593;48.398;10.698;2023-05-07T05:24:57;96124.03;;;21.18
20867;BMP280;10593;48.398;10.698;2023-05-07T05:27:23;96118.44;;;21.24
20867;BMP280;10593;48.398;10.698;2023-05-07T05:29:49;96116.28;;;21.30
20867;BMP280;10593;48.398;10.698;2023-05-07T05:32:15;96123.72;;;21.36
20867;BMP280;10593;48.398;10.698;2023-05-07T05:34:41;96126.72;;;21.44
20867;BMP280;10593;48.398;10.698;2023-05-07T05:37:06;96123.81;;;21.48
20867;BMP280;10593;48.398;10.698;2023-05-07T05:39:32;96126.91;;;21.55
20867;BMP280;10593;48.398;10.698;2023-05-07T05:41:58;96122.94;;;21.62
20867;BMP280;10593;48.398;10.698;2023-05-07T05:44:23;96118.94;;;21.70
20867;BMP280;10593;48.398;10.698;2023-05-07T05:46:49;96122.00;;;21.77
20867;BMP280;10593;48.398;10.698;2023-05-07T05:49:15;96117.16;;;21.85
20867;BMP280;10593;48.398;10.698;2023-05-07T05:51:41;96123.69;;;21.92
20867;BMP280;10593;48.398;10.698;2023-05-07T05:54:07;96123.06;;;22.01
20867;BMP280;10593;48.398;10.698;2023-05-07T05:56:33;96120.81;;;22.09
20867;BMP280;10593;48.398;10.698;2023-05-07T05:58:58;96120.19;;;22.18
20867;BMP280;10593;48.398;10.698;2023-05-07T06:01:24;96118.78;;;22.26
20867;BMP280;10593;48.398;10.698;2023-05-07T06:03:50;96130.31;;;22.36
20867;BMP280;10593;48.398;10.698;2023-05-07T06:06:15;96121.16;;;22.43
20867;BMP280;10593;48.398;10.698;2023-05-07T06:08:42;96126.63;;;22.53
20867;BMP280;10593;48.398;10.698;2023-05-07T06:11:07;96126.22;;;22.59
20867;BMP280;10593;48.398;10.698;2023-05-07T06:13:33;96130.00;;;22.67
20867;BMP280;10593;48.398;10.698;2023-05-07T06:15:59;96127.69;;;22.75
20867;BMP280;10593;48.398;10.698;2023-05-07T06:18:24;96131.59;;;22.82
20867;BMP280;10593;48.398;10.698;2023-05-07T06:20:51;96127.72;;;22.88
20867;BMP280;10593;48.398;10.698;2023-05-07T06:23:17;96133.41;;;22.94
20867;BMP280;10593;48.398;10.698;2023-05-07T06:25:49;96124.16;;;23.01
20867;BMP280;10593;48.398;10.698;2023-05-07T06:28:16;96128.16;;;23.07
20867;BMP280;10593;48.398;10.698;2023-05-07T06:30:41;96126.81;;;23.14
20867;BMP280;10593;48.398;10.698;2023-05-07T06:33:07;96130.91;;;23.18
20867;BMP280;10593;48.398;10.698;2023-05-07T06:35:33;96128.06;;;23.21
20867;BMP280;10593;48.398;10.698;2023-05-07T06:37:59;96134.78;;;23.25
20867;BMP280;10593;48.398;10.698;2023-05-07T06:40:25;96139.09;;;23.26
20867;BMP280;10593;48.398;10.698;2023-05-07T06:42:51;96134.69;;;23.26
20867;BMP280;10593;48.398;10.698;2023-05-07T06:45:17;96142.44;;;23.28
20867;BMP280;10593;48.398;10.698;2023-05-07T06:47:42;96141.72;;;23.26
20867;BMP280;10593;48.398;10.698;2023-05-07T06:50:08;96152.00;;;23.29
20867;BMP280;10593;48.398;10.698;2023-05-07T06:52:35;96144.94;;;23.29
20867;BMP280;10593;48.398;10.698;2023-05-07T06:55:01;96143.81;;;23.33
20867;BMP280;10593;48.398;10.698;2023-05-07T06:57:27;96138.22;;;23.38
20867;BMP280;10593;48.398;10.698;2023-05-07T06:59:52;96145.78;;;23.42
20867;BMP280;10593;48.398;10.698;2023-05-07T07:02:18;96145.47;;;23.47
20867;BMP280;10593;48.398;10.698;2023-05-07T07:04:44;96142.63;;;23.50
20867;BMP280;10593;48.398;10.698;2023-05-07T07:07:10;96150.41;;;23.51
20867;BMP280;10593;48.398;10.698;2023-05-07T07:09:36;96145.06;;;23.53
20867;BMP280;10593;48.398;10.698;2023-05-07T07:12:02;96147.44;;;23.56
20867;BMP280;10593;48.398;10.698;2023-05-07T07:14:27;96149.75;;;23.60
20867;BMP280;10593;48.398;10.698;2023-05-07T07:16:53;96151.44;;;23.61
20867;BMP280;10593;48.398;10.698;2023-05-07T07:19:19;96150.59;;;23.60
20867;BMP280;10593;48.398;10.698;2023-05-07T07:21:45;96150.34;;;23.63
20867;BMP280;10593;48.398;10.698;2023-05-07T07:24:12;96142.16;;;23.68
20867;BMP280;10593;48.398;10.698;2023-05-07T07:26:38;96149.00;;;23.70
20867;BMP280;10593;48.398;10.698;2023-05-07T07:29:05;96155.19;;;23.69
20867;BMP280;10593;48.398;10.698;2023-05-07T07:31:32;96152.44;;;23.71
20867;BMP280;10593;48.398;10.698;2023-05-07T07:33:57;96151.63;;;23.70
20867;BMP280;10593;48.398;10.698;2023-05-07T07:36:23;96141.75;;;23.74
20867;BMP280;10593;48.398;10.698;2023-05-07T07:38:49;96144.88;;;23.79
20867;BMP280;10593;48.398;10.698;2023-05-07T07:41:14;96147.50;;;23.79
20867;BMP280;10593;48.398;10.698;2023-05-07T07:43:40;96147.41;;;23.80
20867;BMP280;10593;48.398;10.698;2023-05-07T07:46:06;96148.44;;;23.78
20867;BMP280;10593;48.398;10.698;2023-05-07T07:48:31;96148.56;;;23.76
20867;BMP280;10593;48.398;10.698;2023-05-07T07:50:57;96146.88;;;23.75
20867;BMP280;10593;48.398;10.698;2023-05-07T07:53:23;96147.59;;;23.77
20867;BMP280;10593;48.398;10.698;2023-05-07T07:55:48;96156.22;;;23.79
20867;BMP280;10593;48.398;10.698;2023-05-07T07:58:14;96154.13;;;23.84
20867;BMP280;10593;48.398;10.698;2023-05-07T08:00:40;96153.69;;;23.90
20867;BMP280;10593;48.398;10.698;2023-05-07T08:03:09;96160.19;;;23.97
20867;BMP280;10593;48.398;10.698;2023-05-07T08:05:34;96165.00;;;24.03
20867;BMP280;10593;48.398;10.698;2023-05-07T08:08:00;96160.13;;;24.10
20867;BMP280;10593;48.398;10.698;2023-05-07T08:10:26;96165.91;;;24.15
20867;BMP280;10593;48.398;10.698;2023-05-07T08:12:52;96170.94;;;24.18
20867;BMP280;10593;48.398;10.698;2023-05-07T08:15:18;96163.69;;;24.21
20867;BMP280;10593;48.398;10.698;2023-05-07T08:17:44;96165.13;;;24.25
20867;BMP280;10593;48.398;10.698;2023-05-07T08:20:10;96167.44;;;24.30
20867;BMP280;10593;48.398;10.698;2023-05-07T08:22:36;96161.84;;;24.34
20867;BMP280;10593;48.398;10.698;2023-05-07T08:25:03;96159.94;;;24.36
20867;BMP280;10593;48.398;10.698;2023-05-07T08:27:28;96169.50;;;24.37
20867;BMP280;10593;48.398;10.698;2023-05-07T08:29:54;96160.56;;;24.40
20867;BMP280;10593;48.398;10.698;2023-05-07T08:32:20;96162.09;;;24.42
20867;BMP280;10593;48.398;10.698;2023-05-07T08:34:47;96171.56;;;24.45
20867;BMP280;10593;48.398;10.698;2023-05-07T08:37:13;96169.88;;;24.44
20867;BMP280;10593;48.398;10.698;2023-05-07T08:39:39;96162.09;;;24.42
20867;BMP280;10593;48.398;10.698;2023-05-07T08:42:04;96162.00;;;24.44
20867;BMP280;10593;48.398;10.698;2023-05-07T08:44:34;96153.91;;;24.47
20867;BMP280;10593;48.398;10.698;2023-05-07T08:47:06;96158.81;;;24.51
20867;BMP280;10593;48.398;10.698;2023-05-07T08:49:33;96153.34;;;24.54
20867;BMP280;10593;48.398;10.698;2023-05-07T08:52:00;96156.47;;;24.59
20867;BMP280;10593;48.398;10.698;2023-05-07T08:54:27;96158.91;;;24.62
20867;BMP280;10593;48.398;10.698;2023-05-07T08:56:53;96157.72;;;24.66
20867;BMP280;10593;48.398;10.698;2023-05-07T08:59:18;96154.84;;;24.69
20867;BMP280;10593;48.398;10.698;2023-05-07T09:01:44;96154.41;;;24.75
20867;BMP280;10593;48.398;10.698;2023-05-07T09:04:10;96157.75;;;24.77
20867;BMP280;10593;48.398;10.698;2023-05-07T09:06:36;96166.97;;;24.83
20867;BMP280;10593;48.398;10.698;2023-05-07T09:09:03;96161.47;;;24.86
20867;BMP280;10593;48.398;10.698;2023-05-07T09:11:31;96158.50;;;24.90
20867;BMP280;10593;48.398;10.698;2023-05-07T09:13:58;96155.66;;;24.93
20867;BMP280;10593;48.398;10.698;2023-05-07T09:16:29;96152.69;;;24.98
20867;BMP280;10593;48.398;10.698;2023-05-07T09:18:59;96148.03;;;25.01
20867;BMP280;10593;48.398;10.698;2023-05-07T09:21:25;96146.13;;;25.03
20867;BMP280;10593;48.398;10.698;2023-05-07T09:23:54;96151.94;;;25.07
20867;BMP280;10593;48.398;10.698;2023-05-07T09:26:24;96149.22;;;25.08
20867;BMP280;10593;48.398;10.698;2023-05-07T09:28:51;96138.59;;;25.10
20867;BMP280;10593;48.398;10.698;2023-05-07T09:31:17;96143.72;;;25.11
20867;BMP280;10593;48.398;10.698;2023-05-07T09:33:43;96153.28;;;25.12
20867;BMP280;10593;48.398;10.698;2023-05-07T09:36:10;96154.03;;;25.14
20867;BMP280;10593;48.398;10.698;2023-05-07T09:38:37;96152.22;;;25.15
20867;BMP280;10593;48.398;10.698;2023-05-07T09:41:11;96147.69;;;25.17
20867;BMP280;10593;48.398;10.698;2023-05-07T09:43:39;96150.19;;;25.18
20867;BMP280;10593;48.398;10.698;2023-05-07T09:46:15;96152.63;;;25.21
20867;BMP280;10593;48.398;10.698;2023-05-07T09:48:43;96144.63;;;25.23
20867;BMP280;10593;48.398;10.698;2023-05-07T09:51:41;96141.84;;;25.24
20867;BMP280;10593;48.398;10.698;2023-05-07T09:54:10;96145.09;;;25.28
20867;BMP280;10593;48.398;10.698;2023-05-07T09:56:36;96145.72;;;25.31
20867;BMP280;10593;48.398;10.698;2023-05-07T09:59:06;96147.13;;;25.35
20867;BMP280;10593;48.398;10.698;2023-05-07T10:01:35;96147.84;;;25.37
20867;BMP280;10593;48.398;10.698;2023-05-07T10:04:02;96146.78;;;25.40
20867;BMP280;10593;48.398;10.698;2023-05-07T10:06:30;96139.59;;;25.42
20867;BMP280;10593;48.398;10.698;2023-05-07T10:08:56;96138.53;;;25.44
20867;BMP280;10593;48.398;10.698;2023-05-07T10:11:22;96148.81;;;25.47
20867;BMP280;10593;48.398;10.698;2023-05-07T10:13:48;96148.56;;;25.50
20867;BMP280;10593;48.398;10.698;2023-05-07T10:16:15;96150.03;;;25.54
20867;BMP280;10593;48.398;10.698;2023-05-07T10:18:42;96146.44;;;25.55
20867;BMP280;10593;48.398;10.698;2023-05-07T10:21:16;96144.53;;;25.57
20867;BMP280;10593;48.398;10.698;2023-05-07T10:23:58;96148.94;;;25.57
20867;BMP280;10593;48.398;10.698;2023-05-07T10:26:27;96145.34;;;25.58
20867;BMP280;10593;48.398;10.698;2023-05-07T10:29:05;96152.41;;;25.57
20867;BMP280;10593;48.398;10.698;2023-05-07T10:32:03;96142.13;;;25.54
20867;BMP280;10593;48.398;10.698;2023-05-07T10:34:42;96150.03;;;25.54
20867;BMP280;10593;48.398;10.698;2023-05-07T10:37:10;96144.78;;;25.54
20867;BMP280;10593;48.398;10.698;2023-05-07T10:39:37;96144.78;;;25.54
20867;BMP280;10593;48.398;10.698;2023-05-07T10:42:14;96149.19;;;25.54
20867;BMP280;10593;48.398;10.698;2023-05-07T10:44:40;96149.06;;;25.55
20867;BMP280;10593;48.398;10.698;2023-05-07T10:47:15;96144.53;;;25.57
20867;BMP280;10593;48.398;10.698;2023-05-07T10:52:23;96139.63;;;25.64
20867;BMP280;10593;48.398;10.698;2023-05-07T10:55:19;96139.38;;;25.67
20867;BMP280;10593;48.398;10.698;2023-05-07T10:57:47;96141.66;;;25.71
20867;BMP280;10593;48.398;10.698;2023-05-07T11:00:59;96135.28;;;25.74
20867;BMP280;10593;48.398;10.698;2023-05-07T11:05:29;96126.31;;;25.76
20867;BMP280;10593;48.398;10.698;2023-05-07T11:08:03;96132.19;;;25.80
20867;BMP280;10593;48.398;10.698;2023-05-07T11:10:56;96131.22;;;25.81
20867;BMP280;10593;48.398;10.698;2023-05-07T11:13:46;96125.84;;;25.82
20867;BMP280;10593;48.398;10.698;2023-05-07T11:16:20;96122.03;;;25.86
20867;BMP280;10593;48.398;10.698;2023-05-07T11:18:56;96121.66;;;25.91
20867;BMP280;10593;48.398;10.698;2023-05-07T11:21:54;96120.56;;;25.93
20867;BMP280;10593;48.398;10.698;2023-05-07T11:24:20;96113.25;;;25.96
20867;BMP280;10593;48.398;10.698;2023-05-07T11:26:50;96120.69;;;26.02
20867;BMP280;10593;48.398;10.698;2023-05-07T11:29:20;96119.47;;;26.06
20867;BMP280;10593;48.398;10.698;2023-05-07T11:31:51;96122.69;;;26.10
20867;BMP280;10593;48.398;10.698;2023-05-07T11:34:25;96117.19;;;26.13
20867;BMP280;10593;48.398;10.698;2023-05-07T11:36:52;96116.94;;;26.16
20867;BMP280;10593;48.398;10.698;2023-05-07T11:39:32;96116.66;;;26.19
20867;BMP280;10593;48.398;10.698;2023-05-07T11:42:02;96119.31;;;26.19
20867;BMP280;10593;48.398;10.698;2023-05-07T11:44:46;96116.66;;;26.19
20867;BMP280;10593;48.398;10.698;2023-05-07T11:47:20;96113.06;;;26.20
20867;BMP280;10593;48.398;10.698;2023-05-07T11:49:48;96103.28;;;26.22
20867;BMP280;10593;48.398;10.698;2023-05-07T11:52:16;96106.47;;;26.25
20867;BMP280;10593;48.398;10.698;2023-05-07T11:54:51;96094.84;;;26.28
20867;BMP280;10593;48.398;10.698;2023-05-07T11:57:18;96098.19;;;26.30
20867;BMP280;10593;48.398;10.698;2023-05-07T11:59:43;96095.44;;;26.31
20867;BMP280;10593;48.398;10.698;2023-05-07T12:02:17;96104.16;;;26.32
20867;BMP280;10593;48.398;10.698;2023-05-07T12:04:44;96103.22;;;26.33
20867;BMP280;10593;48.398;10.698;2023-05-07T12:07:14;96100.47;;;26.34
20867;BMP280;10593;48.398;10.698;2023-05-07T12:09:45;96103.81;;;26.36
20867;BMP280;10593;48.398;10.698;2023-05-07T12:12:11;96095.78;;;26.38
20867;BMP280;10593;48.398;10.698;2023-05-07T12:14:40;96097.19;;;26.42
20867;BMP280;10593;48.398;10.698;2023-05-07T12:17:08;96095.25;;;26.44
20867;BMP280;10593;48.398;10.698;2023-05-07T12:19:38;96088.75;;;26.48
20867;BMP280;10593;48.398;10.698;2023-05-07T12:22:05;96087.59;;;26.52
20867;BMP280;10593;48.398;10.698;2023-05-07T12:25:02;96084.97;;;26.52
20867;BMP280;10593;48.398;10.698;2023-05-07T12:27:28;96089.13;;;26.54
20867;BMP280;10593;48.398;10.698;2023-05-07T12:29:54;96088.19;;;26.55
20867;BMP280;10593;48.398;10.698;2023-05-07T12:32:21;96080.28;;;26.55
20867;BMP280;10593;48.398;10.698;2023-05-07T12:34:50;96075.72;;;26.57
20867;BMP280;10593;48.398;10.698;2023-05-07T12:37:22;96076.53;;;26.58
20867;BMP280;10593;48.398;10.698;2023-05-07T12:40:03;96080.84;;;26.59
20867;BMP280;10593;48.398;10.698;2023-05-07T12:42:37;96086.81;;;26.61
20867;BMP280;10593;48.398;10.698;2023-05-07T12:45:15;96089.34;;;26.62
20867;BMP280;10593;48.398;10.698;2023-05-07T12:47:47;96081.31;;;26.64
20867;BMP280;10593;48.398;10.698;2023-05-07T12:50:14;96088.25;;;26.65
20867;BMP280;10593;48.398;10.698;2023-05-07T12:52:40;96085.47;;;26.66
20867;BMP280;10593;48.398;10.698;2023-05-07T12:55:08;96082.72;;;26.68
20867;BMP280;10593;48.398;10.698;2023-05-07T12:57:47;96094.94;;;26.69
20867;BMP280;10593;48.398;10.698;2023-05-07T13:00:14;96083.53;;;26.68
20867;BMP280;10593;48.398;10.698;2023-05-07T13:02:42;96084.38;;;26.69
20867;BMP280;10593;48.398;10.698;2023-05-07T13:05:10;96084.38;;;26.69
20867;BMP280;10593;48.398;10.698;2023-05-07T13:07:36;96079.00;;;26.70
20867;BMP280;10593;48.398;10.698;2023-05-07T13:10:03;96074.44;;;26.72
20867;BMP280;10593;48.398;10.698;2023-05-07T13:12:29;96070.81;;;26.73
20867;BMP280;10593;48.398;10.698;2023-05-07T13:14:55;96073.31;;;26.75
20867;BMP280;10593;48.398;10.698;2023-05-07T13:17:21;96075.00;;;26.76
20867;BMP280;10593;48.398;10.698;2023-05-07T13:19:47;96081.97;;;26.77
20867;BMP280;10593;48.398;10.698;2023-05-07T13:22:12;96076.69;;;26.77
20867;BMP280;10593;48.398;10.698;2023-05-07T13:24:38;96064.47;;;26.76
20867;BMP280;10593;48.398;10.698;2023-05-07T13:27:07;96076.69;;;26.77
20867;BMP280;10593;48.398;10.698;2023-05-07T13:29:32;96072.22;;;26.77
20867;BMP280;10593;48.398;10.698;2023-05-07T13:31:58;96065.28;;;26.76
20867;BMP280;10593;48.398;10.698;2023-05-07T13:34:24;96073.91;;;26.78
20867;BMP280;10593;48.398;10.698;2023-05-07T13:36:50;96072.94;;;26.79
20867;BMP280;10593;48.398;10.698;2023-05-07T13:39:16;96074.59;;;26.80
20867;BMP280;10593;48.398;10.698;2023-05-07T13:41:41;96075.34;;;26.82
20867;BMP280;10593;48.398;10.698;2023-05-07T13:44:07;96080.63;;;26.82
20867;BMP280;10593;48.398;10.698;2023-05-07T13:46:33;96075.34;;;26.82
20867;BMP280;10593;48.398;10.698;2023-05-07T13:48:58;96074.47;;;26.82
20867;BMP280;10593;48.398;10.698;2023-05-07T13:51:24;96070.88;;;26.83
20867;BMP280;10593;48.398;10.698;2023-05-07T13:53:51;96074.22;;;26.85
20867;BMP280;10593;48.398;10.698;2023-05-07T13:56:17;96071.47;;;26.86
20867;BMP280;10593;48.398;10.698;2023-05-07T13:58:43;96068.69;;;26.88
20867;BMP280;10593;48.398;10.698;2023-05-07T14:01:09;96073.13;;;26.87
20867;BMP280;10593;48.398;10.698;2023-05-07T14:03:35;96077.44;;;26.88
20867;BMP280;10593;48.398;10.698;2023-05-07T14:06:03;96070.38;;;26.89